FredonyerEastRWIS Atmospheric Data: 09/14/2018 Summary  Detailed Graphs  Station List

  Temperature     Wind Precipitation Visibility
Timestamp Air Wet
Bulb
Dew-
point
24-hr
Max
24-hr
Min
Relative
Humidity
Atmospheric
Pressure
Avg
Speed
Avg
Dir
Spot
Speed
Spot
Dir
Max
Speed
Max
Dir
  Rate Situation Start End 1 hr 3 hr 6 hr 12 hr 24 hr   Situation
Date Time °F °F °F °F °F % in Hg mph ° mph ° mph ° Y/N in/hr text Date Time Date Time in in in in in mi text
09/14/2018 12:08 AM 35.78 33.08 28.22 67.82 35.42 73.0 Not Reported 0.00 SW 0.00 NW 0.00 x No x No Precipitation 09/11/2018 09:21 AM 09/11/2018 09:22 AM x x x x x Not Reported Not Reported
09/14/2018 12:23 AM 35.42 32.72 28.04 67.82 35.42 73.0 Not Reported 0.00 NW 0.00 NW 1.12 SW No x No Precipitation 09/11/2018 09:21 AM 09/11/2018 09:22 AM x x x x x Not Reported Not Reported
09/14/2018 12:38 AM 35.24 32.54 28.04 67.82 35.24 74.0 Not Reported 0.00 NW 0.00 NW 1.34 NW No x No Precipitation 09/11/2018 09:21 AM 09/11/2018 09:22 AM x x x x x Not Reported Not Reported
09/14/2018 12:53 AM 35.06 32.36 28.04 67.82 34.88 75.0 Not Reported 0.00 NW 0.00 NW 1.34 NW No x No Precipitation 09/11/2018 09:21 AM 09/11/2018 09:22 AM x x x x x Not Reported Not Reported
09/14/2018 01:09 AM 34.70 32.18 28.04 67.82 34.70 76.0 Not Reported 0.00 N 0.00 N 1.12 N No x No Precipitation 09/11/2018 09:21 AM 09/11/2018 09:22 AM x x x x x Not Reported Not Reported
09/14/2018 01:23 AM 34.52 32.18 28.04 67.82 34.34 76.0 Not Reported 0.00 NW 0.00 NW 0.00 x No x No Precipitation 09/11/2018 09:21 AM 09/11/2018 09:22 AM x x x x x Not Reported Not Reported
09/14/2018 01:38 AM 33.98 31.64 27.86 67.82 33.98 78.0 Not Reported 0.45 W 1.34 NW 1.57 NW No x No Precipitation   09/11/2018 09:22 AM x x x x x Not Reported Not Reported
09/14/2018 01:53 AM 33.98 31.82 28.22 67.82 33.98 79.0 Not Reported 0.67 NW 0.00 NW 1.34 NW No x No Precipitation 09/11/2018 09:21 AM 09/11/2018 09:22 AM x x x x x Not Reported Not Reported
09/14/2018 02:08 AM 33.80 31.64 28.22 67.82 33.62 80.0 Not Reported 0.00 SW 0.00 SW 0.00 x No x No Precipitation 09/11/2018 09:21 AM 09/11/2018 09:22 AM x x x x x Not Reported Not Reported
09/14/2018 02:23 AM 33.44 31.64 28.40 67.82 33.26 81.0 Not Reported 0.22 NW 0.00 NW 1.12 NW No x No Precipitation 09/11/2018 09:21 AM 09/11/2018 09:22 AM x x x x x Not Reported Not Reported
09/14/2018 02:40 AM 33.08 31.28 28.58 67.82 33.08 82.0 Not Reported 0.00 NW 1.12 NW 0.45 NW No x No Precipitation 09/11/2018 09:21 AM 09/11/2018 09:22 AM x x x x x Not Reported Not Reported
09/14/2018 02:53 AM 32.90 31.28 28.58 67.82 32.72 83.0 Not Reported 0.00 NW 0.00 NW 0.00 x No x No Precipitation 09/11/2018 09:21 AM 09/11/2018 09:22 AM x x x x x Not Reported Not Reported
09/14/2018 03:08 AM 32.72 31.28 28.76 67.82 32.72 85.0 Not Reported 0.00 NW 0.00 NW 0.00 x No x No Precipitation 09/11/2018 09:21 AM 09/11/2018 09:22 AM x x x x x Not Reported Not Reported
09/14/2018 03:23 AM 32.54 31.10 28.94 67.82 32.54 86.0 Not Reported 0.22 NW 1.12 NW 1.34 NW No x No Precipitation 09/11/2018 09:21 AM 09/11/2018 09:22 AM x x x x x Not Reported Not Reported
09/14/2018 03:38 AM 32.36 31.10 29.12 67.82 32.36 87.0 Not Reported 0.00 N 0.00 N 0.22 N No x No Precipitation 09/11/2018 09:21 AM 09/11/2018 09:22 AM x x x x x Not Reported Not Reported
09/14/2018 03:53 AM 32.00 30.92 29.12 67.82 32.00 88.0 Not Reported 0.22 NW 0.00 NW 1.12 NW No x No Precipitation 09/11/2018 09:21 AM 09/11/2018 09:22 AM x x x x x Not Reported Not Reported
09/14/2018 04:08 AM 31.82 30.74 29.12 67.82 31.82 89.0 Not Reported 0.89 NW 1.12 NW 1.34 NW No x No Precipitation 09/11/2018 09:21 AM 09/11/2018 09:22 AM x x x x x Not Reported Not Reported
09/14/2018 04:23 AM 31.82 30.74 29.30 67.82 31.82 90.0 Not Reported 0.00 NW 0.00 NW 0.22 NW No x No Precipitation 09/11/2018 09:21 AM 09/11/2018 09:22 AM x x x x x Not Reported Not Reported
09/14/2018 04:38 AM 31.64 30.74 29.48 67.82 31.64 91.0 Not Reported 0.00 W 0.00 SW 0.00 x No x No Precipitation 09/11/2018 09:21 AM 09/11/2018 09:22 AM x x x x x Not Reported Not Reported
09/14/2018 04:53 AM 31.28 30.56 29.30 67.82 31.28 92.0 Not Reported 0.00 SW 0.00 SW 0.00 x No x No Precipitation 09/11/2018 09:21 AM 09/11/2018 09:22 AM x x x x x Not Reported Not Reported
09/14/2018 05:08 AM 31.46 30.74 29.66 67.82 31.28 92.0 Not Reported 0.67 NW 1.57 NW 2.01 NW No x No Precipitation 09/11/2018 09:21 AM 09/11/2018 09:22 AM x x x x x Not Reported Not Reported
09/14/2018 05:25 AM 31.28 30.38 29.48 67.82 31.10 93.0 Not Reported 0.00 SW 0.00 SW 0.00 x No x No Precipitation 09/11/2018 09:21 AM 09/11/2018 09:22 AM x x x x x Not Reported Not Reported
09/14/2018 05:40 AM 30.74 30.20 29.30 67.82 30.74 93.0 Not Reported 0.00 NW 0.00 NW 0.67 NW No x No Precipitation 09/11/2018 09:21 AM 09/11/2018 09:22 AM x x x x x Not Reported Not Reported
09/14/2018 05:53 AM 30.74 30.20 29.30 67.82 30.74 94.0 Not Reported 0.00 NW 0.00 NW 1.79 NW No x No Precipitation 09/11/2018 09:21 AM 09/11/2018 09:22 AM x x x x x Not Reported Not Reported
09/14/2018 06:08 AM 30.56 30.02 29.30 67.82 30.56 95.0 Not Reported 0.00 SW 0.00 SW 0.00 x No x No Precipitation 09/11/2018 09:21 AM 09/11/2018 09:22 AM x x x x x Not Reported Not Reported
09/14/2018 06:23 AM 30.38 30.02 29.30 67.82 30.38 96.0 Not Reported 0.00 SW 0.00 SW 0.00 x No x No Precipitation 09/11/2018 09:21 AM 09/11/2018 09:22 AM x x x x x Not Reported Not Reported
09/14/2018 06:38 AM 30.38 30.02 29.66 67.82 30.20 97.0 Not Reported 0.00 NW 0.00 NW 1.34 NW Yes x No Precipitation 09/11/2018 09:21 AM 09/11/2018 09:22 AM x x x x x Not Reported Not Reported
09/14/2018 06:53 AM 30.02 29.84 29.30 67.82 30.02 97.0 Not Reported 0.22 N 1.34 N 1.34 N No x No Precipitation 09/11/2018 09:21 AM 09/11/2018 09:22 AM x x x x x Not Reported Not Reported
09/14/2018 07:08 AM 30.02 29.84 29.48 67.82 29.84 97.0 Not Reported 0.22 NW 0.00 NW 1.57 NW No x No Precipitation 09/11/2018 09:21 AM 09/11/2018 09:22 AM x x x x x Not Reported Not Reported
09/14/2018 07:23 AM 30.20 30.02 29.84 67.82 29.84 98.0 Not Reported 0.00 SW 0.00 SW 0.00 x No x No Precipitation 09/11/2018 09:21 AM 09/11/2018 09:22 AM x x x x x Not Reported Not Reported
09/14/2018 07:38 AM 31.10 31.10 30.92 67.82 29.84 98.0 Not Reported 0.00 E 0.00 E 1.57 SE No x No Precipitation 09/11/2018 09:21 AM 09/11/2018 09:22 AM x x x x x Not Reported Not Reported
09/14/2018 07:53 AM 33.44 33.26 32.90 67.82 29.84 97.0 Not Reported 0.89 SE 0.22 SE 1.34 SE No x No Precipitation 09/11/2018 09:21 AM 09/11/2018 09:22 AM x x x x x Not Reported Not Reported
09/14/2018 08:08 AM 35.42 34.88 33.98 67.82 29.84 94.0 Not Reported 0.00 SE 0.00 SE 1.79 SE No x No Precipitation 09/11/2018 09:21 AM 09/11/2018 09:22 AM x x x x x Not Reported Not Reported
09/14/2018 08:23 AM 37.76 36.86 35.24 67.82 29.84 90.0 Not Reported 2.68 SE 1.79 SE 3.13 SE No x No Precipitation 09/11/2018 09:21 AM 09/11/2018 09:22 AM x x x x x Not Reported Not Reported
09/14/2018 08:38 AM 42.44 39.92 37.04 67.82 29.84 80.0 Not Reported 2.91 S 2.68 S 4.70 S No x No Precipitation 09/11/2018 09:21 AM 09/11/2018 09:22 AM x x x x x Not Reported Not Reported
09/14/2018 08:53 AM 46.58 42.98 38.30 67.82 29.84 72.0 Not Reported 0.22 SE 0.00 SE 3.80 SE No x No Precipitation 09/11/2018 09:21 AM 09/11/2018 09:22 AM x x x x x Not Reported Not Reported
09/14/2018 09:08 AM 50.18 45.14 39.02 67.82 29.84 65.0 Not Reported 0.89 E 2.01 E 3.58 SE No x No Precipitation 09/11/2018 09:21 AM 09/11/2018 09:22 AM x x x x x Not Reported Not Reported
09/14/2018 09:23 AM 53.24 46.76 39.38 67.82 29.84 59.0 Not Reported 1.34 NE 2.91 SE 5.59 SE No x No Precipitation 09/11/2018 09:21 AM 09/11/2018 09:22 AM x x x x x Not Reported Not Reported
09/14/2018 09:38 AM 54.32 47.30 38.84 67.82 29.84 55.0 Not Reported 2.01 E 1.57 SE 7.38 SE No x No Precipitation 09/11/2018 09:21 AM 09/11/2018 09:22 AM x x x x x Not Reported Not Reported
09/14/2018 09:53 AM 56.30 48.38 38.66 67.82 29.84 51.0 Not Reported 2.91 SE 1.34 SE 6.71 S No x No Precipitation 09/11/2018 09:21 AM 09/11/2018 09:22 AM x x x x x Not Reported Not Reported
09/14/2018 10:08 AM 58.64 49.64 39.38 67.82 29.84 48.0 Not Reported 2.46 SE 3.13 SE 6.93 SE No x No Precipitation 09/11/2018 09:21 AM 09/11/2018 09:22 AM x x x x x Not Reported Not Reported
09/14/2018 10:23 AM 61.16 51.26 40.10 67.82 29.84 45.0 Not Reported 4.25 SW 6.71 NW 12.08 SW No x No Precipitation 09/11/2018 09:21 AM 09/11/2018 09:22 AM x x x x x Not Reported Not Reported
09/14/2018 10:38 AM 60.98 50.90 38.66 67.82 29.84 43.0 Not Reported 4.92 W 3.58 S 13.87 NW No x No Precipitation 09/11/2018 09:21 AM 09/11/2018 09:22 AM x x x x x Not Reported Not Reported
09/14/2018 10:53 AM 61.34 50.72 38.48 67.82 29.84 42.0 Not Reported 3.80 SW 6.93 S 12.75 SW No x No Precipitation 09/11/2018 09:21 AM 09/11/2018 09:22 AM x x x x x Not Reported Not Reported
09/14/2018 11:09 AM 61.70 50.90 37.94 67.82 29.84 41.0 Not Reported 4.70 SW 0.89 NW 15.88 SW No x No Precipitation 09/11/2018 09:21 AM 09/11/2018 09:22 AM x x x x x Not Reported Not Reported
09/14/2018 11:23 AM 62.78 51.44 38.12 67.82 29.84 40.0 Not Reported 5.59 W 3.58 W 12.75 S No x No Precipitation 09/14/2018 11:11 AM 09/14/2018 11:13 AM x x x x x Not Reported Not Reported
09/14/2018 11:38 AM 62.42 51.26 37.40 67.82 29.84 39.0 Not Reported 5.37 SE 3.80 SW 14.76 W No x No Precipitation 09/14/2018 11:11 AM 09/14/2018 11:13 AM x x x x x Not Reported Not Reported
09/14/2018 11:53 AM 62.96 51.44 37.22 67.82 29.84 38.0 Not Reported 5.59 SW 2.24 SW 13.42 S No x No Precipitation 09/14/2018 11:11 AM 09/14/2018 11:13 AM x x x x x Not Reported Not Reported
09/14/2018 12:08 PM 62.60 51.08 36.14 67.82 29.84 37.0 Not Reported 5.37 NW 2.68 N 19.91 SW No x No Precipitation 09/14/2018 11:11 AM 09/14/2018 11:13 AM x x x x x Not Reported Not Reported
09/14/2018 12:23 PM 63.86 51.98 36.86 67.82 29.84 36.0 Not Reported 6.71 S 3.58 SE 14.99 SE No x No Precipitation 09/14/2018 11:11 AM 09/14/2018 11:13 AM x x x x x Not Reported Not Reported
09/14/2018 12:38 PM 64.94 52.52 36.86 67.82 29.84 35.0 Not Reported 4.25 W 2.24 S 19.46 W No x No Precipitation 09/14/2018 11:11 AM 09/14/2018 11:13 AM x x x x x Not Reported Not Reported
09/14/2018 12:53 PM 64.40 51.98 36.14 67.82 29.84 34.0 Not Reported 8.50 SE 4.92 SE 17.22 SE No x No Precipitation 09/14/2018 11:11 AM 09/14/2018 11:13 AM x x x x x Not Reported Not Reported
09/14/2018 01:08 PM 64.94 52.70 36.86 67.82 29.84 35.0 Not Reported 5.14 S 9.62 S 19.01 S No x No Precipitation 09/14/2018 11:11 AM 09/14/2018 11:13 AM x x x x x Not Reported Not Reported
09/14/2018 01:23 PM 66.74 53.78 37.94 67.82 29.84 34.0 Not Reported 2.46 W 0.45 W 16.33 S No x No Precipitation 09/14/2018 11:11 AM 09/14/2018 11:13 AM x x x x x Not Reported Not Reported
09/14/2018 01:38 PM 68.00 54.50 38.48 68.18 29.84 33.0 Not Reported 5.37 W 4.25 SW 14.99 NW No x No Precipitation 09/14/2018 11:11 AM 09/14/2018 11:13 AM x x x x x Not Reported Not Reported
09/14/2018 01:55 PM 67.28 53.78 37.58 68.54 29.84 33.0 Not Reported 7.83 S 1.79 NW 16.33 W No x No Precipitation 09/14/2018 11:11 AM 09/14/2018 11:13 AM x x x x x Not Reported Not Reported
09/14/2018 02:08 PM 69.44 55.22 38.66 69.44 29.84 32.0 Not Reported 5.14 S 4.92 SW 12.97 S No x No Precipitation 09/14/2018 11:11 AM 09/14/2018 11:13 AM x x x x x Not Reported Not Reported
09/14/2018 02:23 PM 69.26 55.04 38.12 69.62 29.84 31.0 Not Reported 6.04 SW 0.22 E 13.42 SW No x No Precipitation 09/14/2018 11:11 AM 09/14/2018 11:13 AM x x x x x Not Reported Not Reported
09/14/2018 02:38 PM 68.36 54.32 37.40 69.62 29.84 31.0 Not Reported 7.83 SW 7.16 SW 20.36 SW No x No Precipitation 09/14/2018 11:11 AM 09/14/2018 11:13 AM x x x x x Not Reported Not Reported
09/14/2018 02:53 PM 67.28 53.78 36.50 69.62 29.84 31.0 Not Reported 5.37 S 5.82 SW 12.75 SW No x No Precipitation 09/14/2018 11:11 AM 09/14/2018 11:13 AM x x x x x Not Reported Not Reported
09/14/2018 03:08 PM 66.74 53.42 36.32 69.62 29.84 32.0 Not Reported 4.03 S 1.57 SW 11.41 W No x No Precipitation 09/14/2018 11:11 AM 09/14/2018 11:13 AM x x x x x Not Reported Not Reported
09/14/2018 03:23 PM 68.36 54.50 37.40 69.62 29.84 31.0 Not Reported 2.91 W 6.04 SW 10.96 NW No x No Precipitation 09/14/2018 11:11 AM 09/14/2018 11:13 AM x x x x x Not Reported Not Reported
09/14/2018 03:38 PM 68.36 54.32 37.22 69.62 29.84 31.0 Not Reported 8.05 W 12.53 NW 17.22 NW No x No Precipitation 09/14/2018 11:11 AM 09/14/2018 11:13 AM x x x x x Not Reported Not Reported
09/14/2018 03:53 PM 66.74 53.24 35.96 69.62 29.84 31.0 Not Reported 4.92 W 4.92 S 14.76 NW No x No Precipitation 09/14/2018 11:11 AM 09/14/2018 11:13 AM x x x x x Not Reported Not Reported
09/14/2018 04:08 PM 68.90 55.04 37.94 69.62 29.84 31.0 Not Reported 3.80 W 3.80 W 12.08 SW No x No Precipitation 09/14/2018 11:11 AM 09/14/2018 11:13 AM x x x x x Not Reported Not Reported
09/14/2018 04:23 PM 69.44 55.04 37.94 69.98 29.84 31.0 Not Reported 5.37 SW 4.92 SW 9.40 SW No x No Precipitation 09/14/2018 11:11 AM 09/14/2018 11:13 AM x x x x x Not Reported Not Reported
09/14/2018 04:38 PM 69.44 55.22 37.76 69.98 29.84 31.0 Not Reported 5.82 W 4.25 NW 11.63 W No x No Precipitation 09/14/2018 11:11 AM 09/14/2018 11:13 AM x x x x x Not Reported Not Reported
09/14/2018 04:53 PM 69.08 54.86 37.58 69.98 29.84 31.0 Not Reported 4.92 S 5.37 NW 9.62 NW No x No Precipitation 09/14/2018 11:11 AM 09/14/2018 11:13 AM x x x x x Not Reported Not Reported
09/14/2018 05:09 PM 68.72 54.68 37.40 69.98 29.84 31.0 Not Reported 5.59 S 6.04 SW 9.84 S No x No Precipitation 09/14/2018 11:11 AM 09/14/2018 11:13 AM x x x x x Not Reported Not Reported
09/14/2018 05:23 PM 68.36 54.50 37.58 69.98 29.84 32.0 Not Reported 3.80 SW 2.46 W 14.76 SE No x No Precipitation 09/14/2018 11:11 AM 09/14/2018 11:13 AM x x x x x Not Reported Not Reported
09/14/2018 05:38 PM 67.10 53.60 36.68 69.98 29.84 32.0 Not Reported 2.01 W 2.01 W 7.83 S No x No Precipitation 09/14/2018 11:11 AM 09/14/2018 11:13 AM x x x x x Not Reported Not Reported
09/14/2018 05:53 PM 66.38 53.24 36.32 69.98 29.84 32.0 Not Reported 2.91 SW 3.13 W 10.74 W No x No Precipitation 09/14/2018 11:11 AM 09/14/2018 11:13 AM x x x x x Not Reported Not Reported
09/14/2018 06:08 PM 64.58 51.98 35.24 69.98 29.84 33.0 Not Reported 4.92 W 3.13 NW 9.62 NW No x No Precipitation 09/14/2018 11:11 AM 09/14/2018 11:13 AM x x x x x Not Reported Not Reported
09/14/2018 06:23 PM 63.50 51.26 34.70 69.98 29.84 34.0 Not Reported 2.24 N 2.68 N 5.59 NW No x No Precipitation 09/14/2018 11:11 AM 09/14/2018 11:13 AM x x x x x Not Reported Not Reported
09/14/2018 06:53 PM 61.52 50.00 33.98 69.98 29.84 35.0 Not Reported 1.34 NW 1.79 N 5.82 W No x No Precipitation 09/14/2018 11:11 AM 09/14/2018 11:13 AM x x x x x Not Reported Not Reported
09/14/2018 07:08 PM 60.26 49.10 33.62 69.98 29.84 36.0 Not Reported 3.36 NW 2.91 N 5.37 NW No x No Precipitation 09/14/2018 11:11 AM 09/14/2018 11:13 AM x x x x x Not Reported Not Reported
09/14/2018 07:23 PM 58.10 47.66 32.36 69.98 29.84 37.0 Not Reported 2.91 NW 2.91 N 5.59 N No x No Precipitation 09/14/2018 11:11 AM 09/14/2018 11:13 AM x x x x x Not Reported Not Reported
09/14/2018 07:39 PM 55.58 46.04 31.10 69.98 29.84 39.0 Not Reported 0.67 NW 1.12 NW 3.36 NW No x No Precipitation 09/14/2018 11:11 AM 09/14/2018 11:13 AM x x x x x Not Reported Not Reported
09/14/2018 07:53 PM 53.78 44.60 30.38 69.98 29.84 40.0 Not Reported 1.34 N 1.79 NW 2.68 S No x No Precipitation 09/14/2018 11:11 AM 09/14/2018 11:13 AM x x x x x Not Reported Not Reported
09/14/2018 08:08 PM 52.34 43.70 29.84 69.98 29.84 41.0 Not Reported 1.57 NW 2.01 NW 3.36 N No x No Precipitation 09/14/2018 11:11 AM 09/14/2018 11:13 AM x x x x x Not Reported Not Reported
09/14/2018 08:25 PM 51.08 42.80 29.48 69.98 29.84 43.0 Not Reported 1.79 N 2.01 N 2.24 N No x No Precipitation 09/14/2018 11:11 AM 09/14/2018 11:13 AM x x x x x Not Reported Not Reported
09/14/2018 08:38 PM 50.18 42.08 29.30 69.98 29.84 44.0 Not Reported 0.45 NW 1.79 SW 2.46 NW No x No Precipitation 09/14/2018 11:11 AM 09/14/2018 11:13 AM x x x x x Not Reported Not Reported
09/14/2018 08:53 PM 49.46 41.72 29.30 69.98 29.84 45.0 Not Reported 1.34 NW 0.00 NW 2.68 NW No x No Precipitation 09/14/2018 11:11 AM 09/14/2018 11:13 AM x x x x x Not Reported Not Reported
09/14/2018 09:08 PM 49.28 41.72 29.66 69.98 29.84 46.0 Not Reported 0.00 S 0.00 S 2.91 SW No x No Precipitation 09/14/2018 11:11 AM 09/14/2018 11:13 AM x x x x x Not Reported Not Reported
09/14/2018 09:23 PM 49.10 41.72 29.84 69.98 29.84 47.0 Not Reported 1.12 N 2.46 NW 3.36 NW No x No Precipitation 09/14/2018 11:11 AM 09/14/2018 11:13 AM x x x x x Not Reported Not Reported
09/14/2018 09:38 PM 49.28 41.90 30.20 69.98 29.84 47.0 Not Reported 0.22 N 1.34 W 2.46 NE No x No Precipitation 09/14/2018 11:11 AM 09/14/2018 11:13 AM x x x x x Not Reported Not Reported
09/14/2018 09:53 PM 49.82 42.44 30.74 69.98 29.84 47.0 Not Reported 0.89 N 0.00 NE 2.24 S No x No Precipitation 09/14/2018 11:11 AM 09/14/2018 11:13 AM x x x x x Not Reported Not Reported
09/14/2018 10:08 PM 50.00 42.44 30.92 69.98 29.84 47.0 Not Reported 1.12 N 0.00 W 3.13 NW No x No Precipitation 09/14/2018 11:11 AM 09/14/2018 11:13 AM x x x x x Not Reported Not Reported
09/14/2018 10:23 PM 50.18 42.62 31.10 69.98 29.84 47.0 Not Reported 0.67 S 0.00 S 2.46 W No x No Precipitation 09/14/2018 11:11 AM 09/14/2018 11:13 AM x x x x x Not Reported Not Reported
09/14/2018 10:38 PM 50.72 42.98 31.64 69.98 29.84 48.0 Not Reported 1.57 N 1.12 NW 2.91 N No x No Precipitation 09/14/2018 10:24 PM 09/14/2018 10:25 PM x x x x x Not Reported Not Reported
09/14/2018 10:53 PM 50.72 43.16 31.82 69.98 29.84 48.0 Not Reported 1.79 N 2.01 N 2.24 N No x No Precipitation 09/14/2018 10:24 PM 09/14/2018 10:25 PM x x x x x Not Reported Not Reported
09/14/2018 11:09 PM 50.72 43.16 31.82 69.98 29.84 47.0 Not Reported 2.24 NW 2.01 NW 2.68 NW No x No Precipitation 09/14/2018 10:24 PM 09/14/2018 10:25 PM x x x x x Not Reported Not Reported
09/14/2018 11:25 PM 49.46 42.08 30.56 69.98 29.84 48.0 Not Reported 1.12 N 0.45 N 2.01 NW No x No Precipitation 09/14/2018 10:24 PM 09/14/2018 10:25 PM x x x x x Not Reported Not Reported
09/14/2018 11:38 PM 48.38 41.36 30.20 69.98 29.84 48.0 Not Reported 1.57 N 0.00 N 2.46 N No x No Precipitation 09/14/2018 10:24 PM 09/14/2018 10:25 PM x x x x x Not Reported Not Reported
09/14/2018 11:53 PM 47.84 41.00 29.84 69.98 29.84 49.0 Not Reported 1.12 N 2.24 SW 2.68 N No x No Precipitation 09/14/2018 10:24 PM 09/14/2018 10:25 PM x x x x x Not Reported Not Reported